Weather at Bullhead City Airport [CLOSED]

Public forecast

Using degrees Fahrenheit for public forecast. Weather courtesy of forecast.io.

Closest aviation weather report (METAR) to Bullhead City Airport

Closest report is Laughlin Bullhead International Airport, 0.4 nm (0.7 km) SE. Retrieved 2021/07/27 22:50 UTC (1 hour ago):

KIFP 272250Z 29004KT 10SM BKN090 41/11 A2984

Closest aviation forecast (TAF) to Bullhead City Airport

Closest forecast is Laughlin Bullhead International Airport, 0.4 nm (0.7 km) SE. Retrieved 2021/07/27 18:21 UTC (6 hours ago):

TAF KIFP 271720Z 2718/2818 VRB03KT P6SM SKC FM271900 19008KT P6SM SCT120 FM280500 15007KT P6SM SCT150 SCT250